Royalton, Vermont
Current Conditions -  °F | °C
As of 4:53 PM on Saturday 25 Oct 2014 (Local Time) from KLEB Reporting Station
Overcast Overcast  
Wind Chill: 59°   Ceiling: 4600
Heat Index: 59°   Visibility: 10mi
Dew Point: 41°   Wind: 3mph
Humidity: 51%   Direction: 230°SW
Pressure: 29.58"   Gusts: NA
Location:  43.7658°N, 72.5431°W
Report Text: KLEB 252053Z 23003KT 10SM BKN046 OVC055 15/05 A2958 RMK AO2 SLP017 T01500050 55010
Loading
Personal Weather Stations






























Interactive Weather Map
Tropical Storm Tracking
New forecast layout! Learn more

10-Day Weather Forecast

Advertisements
Track Severe Weather on mobile